Fisk, Texas
Current Conditions -  °F | °C
As of 9:15 PM on Friday 21 Nov 2014 (Local Time) from KCOM Reporting Station
Scattered Clouds Scattered Clouds  
Wind Chill: 62°   Ceiling: Unl
Heat Index: 62°   Visibility: 10mi
Dew Point: 56°   Wind: 6mph
Humidity: 82%   Direction: 170°S
Pressure: 30.03"   Gusts: NA
Location:  31.8779°N, 99.43°W
Report Text: KCOM 220315Z AUTO 17005KT 10SM SCT045 16/13 A3003 RMK AO2 T01640133
Loading
Personal Weather Stations






























Interactive Weather Map New forecast layout! Learn more

10-Day Weather Forecast

Advertisements
Track Severe Weather on mobile